Time;durP1;ratioP1;P1;durP2;ratioP2;P2;SDS_P1;SDS_P2;PMS_P1;PMS_P2;Temp;Humidity;BMP_temperature;BMP_pressure;BME280_temperature;BME280_humidity;BME280_pressure;Samples;Min_cycle;Max_cycle;Signal;HPM_P1;HPM_P2
2024/05/06 00:00:06;;;;;;;12.40;11.10;;;14.20;71.70;;;-145.48;100.00;99812.09;5076898;28;20645;-79
2024/05/06 00:02:32;;;;;;;12.73;11.20;;;14.20;72.20;;;-145.48;100.00;99787.13;5076815;28;20213;-79
2024/05/06 00:04:57;;;;;;;11.87;10.63;;;14.20;72.40;;;-145.48;100.00;99797.53;5077201;28;20433;-79
2024/05/06 00:07:23;;;;;;;11.57;10.47;;;14.10;73.30;;;-145.48;100.00;99807.94;5080561;28;20185;-80
2024/05/06 00:09:49;;;;;;;12.17;10.53;;;14.10;73.90;;;-145.48;100.00;99770.47;5077179;28;20235;-79
2024/05/06 00:12:15;;;;;;;13.30;11.37;;;14.10;73.10;;;-145.48;100.00;99803.78;5077448;28;20638;-79
2024/05/06 00:14:40;;;;;;;14.50;12.30;;;14.20;70.70;;;-145.48;100.00;99818.34;5043934;28;20684;-78
2024/05/06 00:17:06;;;;;;;14.27;12.17;;;14.10;71.20;;;-145.48;100.00;99801.69;5077142;28;20205;-78
2024/05/06 00:19:32;;;;;;;15.17;13.00;;;14.10;72.10;;;-145.48;100.00;99795.47;5060347;28;20182;-79
2024/05/06 00:21:58;;;;;;;14.17;12.00;;;14.00;74.20;;;-145.48;100.00;99816.28;5060404;28;20218;-78
2024/05/06 00:24:24;;;;;;;15.03;12.57;;;14.00;74.80;;;-145.48;100.00;99832.91;5060500;28;20293;-79
2024/05/06 00:26:49;;;;;;;17.27;12.53;;;14.00;76.20;;;-145.48;100.00;99787.13;5060245;28;20660;-78
2024/05/06 00:29:15;;;;;;;14.70;13.03;;;14.00;75.20;;;-145.48;100.00;99772.56;5060261;28;20212;-79
2024/05/06 00:31:41;;;;;;;15.17;12.53;;;14.00;76.20;;;-145.48;100.00;99832.91;5060032;28;20261;-78
2024/05/06 00:34:07;;;;;;;14.20;12.70;;;14.00;76.40;;;-145.48;100.00;99799.63;5076891;28;20210;-78
2024/05/06 00:36:33;;;;;;;15.70;13.70;;;14.00;75.70;;;-145.48;100.00;99824.59;5060247;28;20273;-78
2024/05/06 00:38:59;;;;;;;17.00;13.17;;;14.00;75.70;;;-145.48;100.00;99782.97;5066471;28;20181;-78
2024/05/06 00:41:25;;;;;;;17.50;13.53;;;14.00;76.40;;;-145.48;100.00;99741.34;5060311;28;20795;-78
2024/05/06 00:43:50;;;;;;;13.67;12.27;;;14.00;76.90;;;-145.48;100.00;99832.91;5060287;28;20192;-78
2024/05/06 00:46:18;;;;;;;18.73;14.33;;;14.00;77.10;;;-145.48;100.00;99849.56;5059744;28;20189;-79
2024/05/06 00:48:44;;;;;;;15.63;13.80;;;14.00;77.30;;;-145.48;100.00;99805.88;5059652;28;20197;-77
2024/05/06 00:51:10;;;;;;;16.90;14.70;;;13.90;78.20;;;-145.48;100.00;99814.19;5059753;28;20493;-79
2024/05/06 00:53:37;;;;;;;18.57;14.77;;;13.90;79.90;;;-145.48;100.00;99818.34;5076746;28;20443;-77
2024/05/06 00:56:03;;;;;;;15.70;13.33;;;13.90;80.50;;;-145.48;100.00;99824.59;5076491;28;20436;-79
2024/05/06 00:58:32;;;;;;;16.70;13.30;;;13.90;81.20;;;-145.48;100.00;99791.28;5076565;28;20432;-78
2024/05/06 01:00:59;;;;;;;17.53;14.63;;;13.90;80.80;;;-145.48;100.00;99830.84;5059451;28;20820;-78
2024/05/06 01:03:26;;;;;;;15.33;13.30;;;13.90;80.60;;;-145.48;100.00;99814.19;5059777;28;20948;-78
2024/05/06 01:05:52;;;;;;;16.40;14.70;;;13.90;81.90;;;-145.48;100.00;99837.09;5076299;28;20464;-78
2024/05/06 01:08:20;;;;;;;17.47;15.30;;;13.80;81.40;;;-145.48;100.00;99828.75;5080549;28;20903;-78
2024/05/06 01:10:46;;;;;;;16.30;14.27;;;13.80;82.30;;;-145.48;100.00;99824.59;5079511;28;20438;-78
2024/05/06 01:13:13;;;;;;;17.30;14.07;;;13.80;80.40;;;-145.48;100.00;99824.59;5079536;28;20435;-79
2024/05/06 01:15:43;;;;;;;17.77;13.83;;;13.80;81.20;;;-145.48;100.00;99837.09;5079787;28;20173;-79
2024/05/06 01:18:09;;;;;;;17.83;15.90;;;13.80;82.00;;;-145.48;100.00;99845.41;5079111;28;20439;-78
2024/05/06 01:20:39;;;;;;;17.47;14.47;;;13.70;82.20;;;-145.48;100.00;99845.41;5079278;28;20419;-78
2024/05/06 01:23:06;;;;;;;16.47;14.60;;;13.70;82.10;;;-145.48;100.00;99845.41;5079642;28;20205;-78
2024/05/06 01:25:32;;;;;;;17.70;15.10;;;13.70;82.80;;;-145.48;100.00;99862.06;5096287;28;20434;-79
2024/05/06 01:27:58;;;;;;;19.40;14.90;;;13.70;82.70;;;-145.48;100.00;99807.94;5078634;28;20419;-79
2024/05/06 01:30:26;;;;;;;19.63;15.80;;;13.70;82.20;;;-145.48;100.00;99832.91;5096173;28;20429;-79
2024/05/06 01:32:53;;;;;;;18.40;16.37;;;13.80;81.30;;;-145.48;100.00;99774.66;5079579;28;20188;-78
2024/05/06 01:35:19;;;;;;;20.13;15.37;;;13.80;78.10;;;-145.48;100.00;99816.28;5079280;28;20595;-79
2024/05/06 01:37:46;;;;;;;18.47;15.17;;;13.70;79.60;;;-145.48;100.00;99766.31;5079122;28;20439;-78
2024/05/06 01:40:12;;;;;;;17.50;15.13;;;13.70;80.50;;;-145.48;100.00;99845.41;5079340;28;20460;-78
2024/05/06 01:42:40;;;;;;;18.80;14.97;;;13.70;82.30;;;-145.48;100.00;99841.25;5079262;28;20825;-78
2024/05/06 01:45:06;;;;;;;19.03;14.90;;;13.70;83.50;;;-145.48;100.00;99870.38;5096552;28;20427;-79
2024/05/06 01:47:31;;;;;;;17.37;15.60;;;13.70;83.60;;;-145.48;100.00;99841.25;5079488;28;20849;-79
2024/05/06 01:49:57;;;;;;;17.30;14.93;;;13.70;83.90;;;-145.48;100.00;99824.59;5079667;28;20467;-78
2024/05/06 01:52:23;;;;;;;17.40;14.67;;;13.80;82.60;;;-145.48;100.00;99803.78;5095483;28;20759;-77
2024/05/06 01:54:49;;;;;;;18.83;15.17;;;13.80;81.80;;;-145.48;100.00;99816.28;5078422;28;20427;-79
2024/05/06 01:57:15;;;;;;;18.97;15.80;;;13.80;81.50;;;-145.48;100.00;99857.91;5095432;28;20181;-79
2024/05/06 01:59:41;;;;;;;17.53;15.03;;;13.90;81.40;;;-145.48;100.00;99835.00;5078448;28;20193;-78
2024/05/06 02:02:07;;;;;;;18.60;15.93;;;13.80;81.90;;;-145.48;100.00;99812.09;5078405;28;20788;-79
2024/05/06 02:04:32;;;;;;;20.40;15.17;;;13.90;80.60;;;-145.48;100.00;99799.63;5078356;28;20634;-78
2024/05/06 02:06:58;;;;;;;17.07;15.17;;;13.90;80.40;;;-145.48;100.00;99762.16;5078063;28;20200;-79
2024/05/06 02:09:25;;;;;;;19.10;14.93;;;13.90;80.20;;;-145.48;100.00;99799.63;5061573;28;20197;-79
2024/05/06 02:11:51;;;;;;;18.43;14.90;;;13.90;80.50;;;-145.48;100.00;99807.94;5078318;28;20181;-78
2024/05/06 02:14:17;;;;;;;16.80;14.10;;;14.00;79.10;;;-145.48;100.00;99822.50;5078232;28;20923;-79
2024/05/06 02:16:43;;;;;;;19.20;15.23;;;13.90;75.60;;;-145.48;100.00;99820.44;5078306;28;20647;-78
2024/05/06 02:19:08;;;;;;;20.63;15.93;;;13.90;77.00;;;-145.48;100.00;99814.19;5078147;28;20181;-78
2024/05/06 02:21:34;;;;;;;20.93;15.57;;;13.90;78.40;;;-145.48;100.00;99820.44;5079226;28;20173;-78
2024/05/06 02:24:00;;;;;;;18.47;15.97;;;13.90;79.00;;;-145.48;100.00;99832.91;5080619;28;20177;-78
2024/05/06 02:26:26;;;;;;;18.10;15.57;;;13.90;79.40;;;-145.48;100.00;99741.34;5078294;28;20185;-78
2024/05/06 02:28:52;;;;;;;20.13;16.47;;;13.80;80.20;;;-145.48;100.00;99845.41;5077218;28;20230;-79
2024/05/06 02:31:18;;;;;;;16.77;14.90;;;13.90;79.70;;;-145.48;100.00;99820.44;5078081;28;20186;-78
2024/05/06 02:33:43;;;;;;;18.97;15.53;;;13.90;81.10;;;-145.48;100.00;99814.19;5078115;28;20647;-78
2024/05/06 02:36:10;;;;;;;18.70;14.90;;;13.90;80.90;;;-145.48;100.00;99770.47;5077569;28;20216;-78
2024/05/06 02:38:36;;;;;;;19.20;14.40;;;13.90;76.80;;;-145.48;100.00;99812.09;5094722;28;20253;-79
2024/05/06 02:41:07;;;;;;;16.27;14.57;;;13.90;77.70;;;-145.48;100.00;99816.28;5094404;28;20804;-79
2024/05/06 02:43:34;;;;;;;15.63;13.60;;;13.90;77.70;;;-145.48;100.00;99782.97;5094914;28;20475;-79
2024/05/06 02:46:00;;;;;;;16.20;12.73;;;13.90;77.60;;;-145.48;100.00;99828.75;5078367;28;21009;-79
2024/05/06 02:48:25;;;;;;;15.67;13.23;;;14.00;76.20;;;-145.48;100.00;99824.59;5077758;28;20435;-79
2024/05/06 02:50:52;;;;;;;15.23;12.50;;;14.00;76.40;;;-145.48;100.00;99755.91;5077466;28;20225;-79
2024/05/06 02:53:17;;;;;;;13.03;11.30;;;13.90;72.30;;;-145.48;100.00;99818.34;5077786;28;20199;-79
2024/05/06 02:55:44;;;;;;;13.17;11.50;;;13.90;74.80;;;-145.48;100.00;99801.69;5074140;28;20921;-79
2024/05/06 02:58:09;;;;;;;12.67;10.63;;;13.90;72.60;;;-145.48;100.00;99841.25;5057821;28;20178;-78
2024/05/06 03:00:35;;;;;;;14.07;11.30;;;13.90;73.80;;;-145.48;100.00;99743.44;5057681;28;20419;-78
2024/05/06 03:03:01;;;;;;;12.60;10.77;;;13.90;73.20;;;-145.48;100.00;99812.09;5074397;28;20354;-78
2024/05/06 03:05:27;;;;;;;13.00;10.63;;;14.00;70.70;;;-145.48;100.00;99818.34;5057707;28;20182;-79
2024/05/06 03:07:54;;;;;;;12.80;9.30;;;13.90;69.40;;;-145.48;100.00;99837.09;5057779;28;20275;-78
2024/05/06 03:10:20;;;;;;;11.77;10.50;;;14.00;69.90;;;-145.48;100.00;99801.69;5094740;28;20545;-79
2024/05/06 03:12:45;;;;;;;14.13;10.97;;;14.00;69.50;;;-145.48;100.00;99822.50;5077541;28;20454;-79
2024/05/06 03:15:11;;;;;;;10.97;9.80;;;14.00;69.20;;;-145.48;100.00;99816.28;5077361;28;20237;-79
2024/05/06 03:17:38;;;;;;;10.50;9.43;;;14.00;67.70;;;-145.48;100.00;99753.84;5077574;28;20224;-78
2024/05/06 03:20:05;;;;;;;10.00;8.40;;;14.00;68.10;;;-145.48;100.00;99824.59;5077639;28;20181;-78
2024/05/06 03:22:30;;;;;;;10.57;8.57;;;14.00;68.50;;;-145.48;100.00;99807.94;5076949;28;20541;-77
2024/05/06 03:24:56;;;;;;;9.93;8.40;;;14.00;66.80;;;-145.48;100.00;99791.28;5077213;28;20962;-78
2024/05/06 03:27:22;;;;;;;9.27;8.17;;;14.10;63.50;;;-145.48;100.00;99810.03;5077340;28;20185;-78
2024/05/06 03:29:48;;;;;;;8.77;7.83;;;14.10;61.40;;;-145.48;100.00;99791.28;5077281;28;20181;-78
2024/05/06 03:32:13;;;;;;;8.87;7.97;;;14.10;60.20;;;-145.48;100.00;99807.94;5077303;28;20745;-78
2024/05/06 03:34:39;;;;;;;7.57;6.33;;;14.10;57.80;;;-145.48;100.00;99824.59;5077284;28;20177;-78
2024/05/06 03:37:05;;;;;;;9.00;7.77;;;14.10;58.20;;;-145.48;100.00;99751.75;5077041;28;20181;-78
2024/05/06 03:39:31;;;;;;;8.80;7.27;;;14.10;57.90;;;-145.48;100.00;99801.69;5077206;28;20181;-78
2024/05/06 03:41:56;;;;;;;10.23;8.43;;;14.10;57.60;;;-145.48;100.00;99787.13;5080704;28;20201;-79
2024/05/06 03:44:22;;;;;;;10.43;9.10;;;14.10;57.40;;;-145.48;100.00;99855.81;5098244;28;20186;-78
2024/05/06 03:46:48;;;;;;;9.93;8.13;;;14.10;59.30;;;-145.48;100.00;99814.19;5081273;28;20264;-79
2024/05/06 03:49:14;;;;;;;9.10;8.00;;;14.00;58.50;;;-145.48;100.00;99805.88;5080835;28;20549;-78
2024/05/06 03:51:39;;;;;;;9.97;8.90;;;14.00;61.80;;;-145.48;100.00;99816.28;5081142;28;20650;-79
2024/05/06 03:54:05;;;;;;;11.47;8.97;;;14.00;62.30;;;-145.48;100.00;99801.69;5081268;28;20185;-79
2024/05/06 03:56:31;;;;;;;10.07;8.63;;;14.00;64.30;;;-145.48;100.00;99772.56;5081088;28;20642;-78
2024/05/06 03:58:57;;;;;;;11.97;10.10;;;14.00;65.00;;;-145.48;100.00;99749.66;5081048;28;20618;-79
2024/05/06 04:01:22;;;;;;;12.27;10.40;;;14.00;64.80;;;-145.48;100.00;99816.28;5081246;28;20185;-80
2024/05/06 04:03:48;;;;;;;9.80;8.80;;;14.00;65.90;;;-145.48;100.00;99799.63;5080975;28;20219;-79
2024/05/06 04:06:15;;;;;;;11.60;10.40;;;14.00;66.70;;;-145.48;100.00;99816.28;5080519;28;20265;-79
2024/05/06 04:08:41;;;;;;;13.13;10.50;;;14.00;68.70;;;-145.48;100.00;99807.94;5080474;28;20205;-77
2024/05/06 04:11:07;;;;;;;11.13;9.60;;;14.00;70.00;;;-145.48;100.00;99778.81;5080768;28;20436;-78
2024/05/06 04:13:34;;;;;;;13.47;9.23;;;14.00;68.80;;;-145.48;100.00;99832.91;5080567;28;20491;-78
2024/05/06 04:16:00;;;;;;;11.17;10.00;;;14.00;67.10;;;-145.48;100.00;99797.53;5080659;28;20459;-80
2024/05/06 04:18:26;;;;;;;12.57;8.90;;;14.00;66.70;;;-145.48;100.00;99799.63;5097758;28;20434;-80
2024/05/06 04:20:52;;;;;;;12.77;10.67;;;13.90;68.70;;;-145.48;100.00;99820.44;5080251;28;20518;-79
2024/05/06 04:28:47;;;;;;;16.03;10.40;;;13.80;70.40;;;-145.48;100.00;99837.09;5099965;28;20526;-80
2024/05/06 04:31:17;;;;;;;13.87;11.10;;;13.90;72.10;;;-145.48;100.00;99799.63;5080262;28;20513;-79
2024/05/06 04:33:44;;;;;;;11.53;9.37;;;13.90;72.80;;;-145.48;100.00;99807.94;5080447;28;20185;-79
2024/05/06 04:36:10;;;;;;;10.77;9.50;;;13.90;73.00;;;-145.48;100.00;99814.19;5080398;28;20427;-79
2024/05/06 04:38:36;;;;;;;11.27;9.70;;;13.90;70.10;;;-145.48;100.00;99832.91;5080299;28;20439;-80
2024/05/06 04:41:01;;;;;;;11.67;9.50;;;13.90;68.80;;;-145.48;100.00;99835.00;5080118;28;20435;-79
2024/05/06 04:43:27;;;;;;;10.70;9.50;;;13.90;70.30;;;-145.48;100.00;99832.91;5079928;28;20265;-80
2024/05/06 04:45:53;;;;;;;10.93;9.60;;;13.90;70.80;;;-145.48;100.00;99853.75;5080026;28;20237;-79
2024/05/06 04:48:19;;;;;;;15.40;10.60;;;13.90;70.20;;;-145.48;100.00;99785.06;5080425;28;20188;-79
2024/05/06 04:50:44;;;;;;;15.33;10.30;;;13.90;70.50;;;-145.48;100.00;99812.09;5079822;28;20216;-79
2024/05/06 04:53:10;;;;;;;13.60;10.43;;;14.00;70.40;;;-145.48;100.00;99832.91;5079727;28;20235;-78
2024/05/06 04:55:40;;;;;;;13.50;11.73;;;14.00;69.70;;;-145.48;100.00;99828.75;5080763;28;20260;-78
2024/05/06 04:58:06;;;;;;;12.57;10.47;;;14.00;67.30;;;-145.48;100.00;99807.94;5080496;28;20185;-79
2024/05/06 05:00:31;;;;;;;14.03;9.87;;;14.00;67.80;;;-145.48;100.00;99822.50;5079475;28;20415;-78
2024/05/06 05:02:57;;;;;;;14.00;11.20;;;14.00;65.80;;;-145.48;100.00;99807.94;5079495;28;20234;-78
2024/05/06 05:05:23;;;;;;;14.33;11.37;;;14.00;65.90;;;-145.48;100.00;99812.09;5079600;28;20181;-79
2024/05/06 05:07:49;;;;;;;15.77;11.43;;;14.00;64.30;;;-145.48;100.00;99776.72;5079938;28;20189;-79
2024/05/06 05:10:15;;;;;;;17.80;11.33;;;14.00;65.00;;;-145.48;100.00;99822.50;5078924;28;20931;-78
2024/05/06 05:12:41;;;;;;;14.10;11.20;;;14.00;66.00;;;-145.48;100.00;99791.28;5079611;28;20186;-78
2024/05/06 05:15:07;;;;;;;12.43;10.63;;;14.00;64.00;;;-145.48;100.00;99789.22;5079564;28;20189;-79
2024/05/06 05:17:32;;;;;;;15.93;11.60;;;13.90;66.10;;;-145.48;100.00;99818.34;5079730;28;20182;-79
2024/05/06 05:19:58;;;;;;;12.40;11.10;;;14.00;67.30;;;-145.48;100.00;99778.81;5079569;28;20181;-79
2024/05/06 05:22:24;;;;;;;15.77;11.80;;;14.00;66.00;;;-145.48;100.00;99745.50;5079486;28;20208;-79
2024/05/06 05:24:50;;;;;;;24.63;14.53;;;14.00;64.40;;;-145.48;100.00;99776.72;5079647;28;20185;-79
2024/05/06 05:27:17;;;;;;;13.80;11.40;;;14.10;63.70;;;-145.48;100.00;99768.41;5096165;28;20181;-78
2024/05/06 05:29:47;;;;;;;15.43;12.07;;;14.10;62.80;;;-145.48;100.00;99812.09;5096031;28;20173;-79
2024/05/06 05:32:13;;;;;;;15.07;12.00;;;14.00;64.80;;;-145.48;100.00;99762.16;5079213;28;20440;-77
2024/05/06 05:34:39;;;;;;;15.40;11.77;;;14.10;64.90;;;-145.48;100.00;99803.78;5078859;28;20430;-80
2024/05/06 05:37:05;;;;;;;15.93;13.00;;;14.00;65.10;;;-145.48;100.00;99791.28;5079274;28;20281;-78
2024/05/06 05:39:31;;;;;;;13.17;10.77;;;14.10;64.30;;;-145.48;100.00;99807.94;5092144;28;20509;-79
2024/05/06 05:41:57;;;;;;;12.43;10.97;;;14.10;64.20;;;-145.48;100.00;99824.59;5092121;28;20808;-78
2024/05/06 05:44:23;;;;;;;14.33;11.93;;;14.10;63.80;;;-145.48;100.00;99799.63;5075529;28;20193;-79
2024/05/06 05:46:48;;;;;;;15.20;12.90;;;14.10;63.30;;;-145.48;100.00;99791.28;5078763;28;20174;-78
2024/05/06 05:49:14;;;;;;;12.83;11.40;;;14.20;61.90;;;-145.48;100.00;99770.47;5094997;28;20206;-78
2024/05/06 05:51:41;;;;;;;17.07;12.70;;;14.20;62.00;;;-145.48;100.00;99778.81;5075133;28;20617;-78
2024/05/06 05:54:08;;;;;;;17.43;12.60;;;14.20;63.00;;;-145.48;100.00;99760.06;5075328;28;20197;-79
2024/05/06 05:56:34;;;;;;;19.40;13.07;;;14.20;61.80;;;-145.48;100.00;99766.31;5091985;28;20432;-78
2024/05/06 05:59:00;;;;;;;12.97;10.63;;;14.20;58.20;;;-145.48;100.00;99782.97;5074978;28;20455;-79
2024/05/06 06:01:26;;;;;;;13.30;11.23;;;14.20;58.60;;;-145.48;100.00;99718.44;5074933;28;20223;-79
2024/05/06 06:03:56;;;;;;;17.63;12.30;;;14.20;59.80;;;-145.48;100.00;99745.50;5091311;28;20511;-79
2024/05/06 06:06:24;;;;;;;16.33;13.33;;;14.30;58.30;;;-145.48;100.00;99778.81;5075396;28;20432;-79
2024/05/06 06:08:49;;;;;;;14.80;12.50;;;14.30;56.60;;;-145.48;100.00;99787.13;5074611;28;20451;-79
2024/05/06 06:11:15;;;;;;;17.93;15.07;;;14.30;58.00;;;-145.48;100.00;99755.91;5074543;28;20432;-78
2024/05/06 06:13:41;;;;;;;14.80;12.50;;;14.30;56.60;;;-145.48;100.00;99791.28;5074613;28;20334;-78
2024/05/06 06:16:07;;;;;;;15.93;12.23;;;14.40;53.20;;;-145.48;100.00;99730.94;5074367;28;20185;-79
2024/05/06 06:18:33;;;;;;;17.43;12.80;;;14.40;53.40;;;-145.48;100.00;99749.66;5075448;28;20193;-79
2024/05/06 06:21:02;;;;;;;13.93;11.30;;;14.40;53.30;;;-145.48;100.00;99741.34;5092145;28;20475;-79
2024/05/06 06:23:28;;;;;;;15.03;12.43;;;14.40;52.10;;;-145.48;100.00;99807.94;5074583;28;20479;-79
2024/05/06 06:25:54;;;;;;;15.77;12.43;;;14.40;53.80;;;-145.48;100.00;99760.06;5090877;28;20416;-78
2024/05/06 06:28:20;;;;;;;19.70;15.00;;;14.40;53.30;;;-145.48;100.00;99739.25;5073909;28;20578;-78
2024/05/06 06:30:46;;;;;;;15.00;12.90;;;14.50;52.60;;;-145.48;100.00;99716.38;5074364;28;20178;-78
2024/05/06 06:33:11;;;;;;;16.37;13.30;;;14.50;52.70;;;-145.48;100.00;99766.31;5074868;28;20227;-78
2024/05/06 06:35:37;;;;;;;17.77;13.70;;;14.60;50.30;;;-145.48;100.00;99751.75;5091331;28;20189;-78
2024/05/06 06:38:06;;;;;;;16.80;12.50;;;14.60;50.60;;;-145.48;100.00;99755.91;5075867;28;20603;-79
2024/05/06 06:40:33;;;;;;;16.40;14.03;;;14.70;50.00;;;-145.48;100.00;99714.28;5094805;28;20187;-79
2024/05/06 06:43:00;;;;;;;17.83;13.60;;;14.70;50.20;;;-145.48;99.99;99716.38;5077730;28;20485;-79
2024/05/06 06:45:26;;;;;;;16.63;12.47;;;14.80;46.60;;;-145.48;100.00;99733.03;5094528;28;20416;-78
2024/05/06 06:47:54;;;;;;;17.00;14.33;;;14.80;49.70;;;-145.48;100.00;99701.81;5077324;28;20556;-79
2024/05/06 06:50:20;;;;;;;18.23;14.53;;;14.80;51.50;;;-145.48;100.00;99785.06;5077224;28;20459;-78
2024/05/06 06:52:46;;;;;;;19.67;14.33;;;14.80;53.60;;;-145.48;100.00;99701.81;5077095;28;20485;-79
2024/05/06 06:55:12;;;;;;;18.53;12.83;;;14.80;52.10;;;-145.48;100.00;99722.63;5093800;28;20183;-78
2024/05/06 06:57:37;;;;;;;14.57;12.60;;;14.80;52.60;;;-145.48;100.00;99708.03;5077445;28;20181;-79
2024/05/06 07:00:04;;;;;;;17.27;13.90;;;14.80;53.20;;;-145.48;100.00;99691.41;5076876;28;20650;-79
2024/05/06 07:02:30;;;;;;;15.97;12.97;;;14.80;50.90;;;-145.48;100.00;99726.78;5077120;28;20277;-78
2024/05/06 07:04:56;;;;;;;16.60;14.60;;;14.80;51.50;;;-145.48;100.00;99747.59;5077215;28;20415;-79
2024/05/06 07:07:21;;;;;;;18.20;13.10;;;14.80;52.70;;;-145.48;100.00;99701.81;5077210;28;20203;-77
2024/05/06 07:09:47;;;;;;;20.77;13.97;;;14.80;53.00;;;-145.48;100.00;99716.38;5060296;28;20196;-77
2024/05/06 07:12:13;;;;;;;17.13;13.47;;;14.80;55.40;;;-145.48;100.00;99681.00;5090335;28;20189;-79
2024/05/06 07:14:40;;;;;;;15.53;12.67;;;14.80;55.60;;;-145.48;100.00;99683.06;5056321;28;20954;-78
2024/05/06 07:17:06;;;;;;;14.37;12.50;;;14.90;54.90;;;-145.48;100.00;99693.47;5056664;28;20192;-78
2024/05/06 07:19:33;;;;;;;15.30;11.73;;;14.90;54.60;;;-145.48;100.00;99695.56;5073382;28;20456;-78
2024/05/06 07:22:00;;;;;;;14.30;11.97;;;14.90;54.20;;;-145.48;100.00;99683.06;5055772;28;20511;-78
2024/05/06 07:24:26;;;;;;;20.60;11.97;;;15.00;50.50;;;-145.48;100.00;99683.06;5056747;28;20483;-79
2024/05/06 07:26:53;;;;;;;12.93;11.20;;;15.00;47.70;;;-145.48;100.00;99716.38;5056237;28;20427;-78
2024/05/06 07:29:19;;;;;;;14.77;11.20;;;15.00;45.70;;;-145.48;100.00;99705.97;5056772;28;20178;-78
2024/05/06 07:31:44;;;;;;;17.57;14.40;;;15.00;47.80;;;-145.48;100.00;99699.72;5056589;28;20470;-79
2024/05/06 07:34:12;;;;;;;16.73;12.00;;;15.10;49.10;;;-145.48;100.00;99666.41;5073890;28;20678;-79
2024/05/06 07:36:37;;;;;;;14.87;11.40;;;15.10;49.80;;;-145.48;100.00;99645.59;5056194;28;20189;-79
2024/05/06 07:39:03;;;;;;;13.93;10.60;;;15.10;51.10;;;-145.48;100.00;99695.56;5066558;28;20470;-78
2024/05/06 07:41:29;;;;;;;13.13;10.03;;;15.20;50.80;;;-145.48;100.00;99681.00;5076925;28;20214;-79
2024/05/06 07:43:55;;;;;;;18.60;13.70;;;15.20;50.80;;;-145.48;100.00;99670.59;5076622;28;20227;-79
2024/05/06 07:46:21;;;;;;;15.47;12.17;;;15.20;50.10;;;-145.48;100.00;99689.31;5059838;28;20177;-79
2024/05/06 07:48:46;;;;;;;14.63;11.43;;;15.30;50.00;;;-145.48;100.00;99701.81;5076810;28;20174;-79
2024/05/06 07:51:12;;;;;;;13.27;11.50;;;15.30;46.70;;;-145.48;100.00;99653.94;5072628;28;20218;-79
2024/05/06 07:53:38;;;;;;;13.37;12.00;;;15.30;45.80;;;-145.48;99.91;99631.03;5073227;28;20181;-79
2024/05/06 07:56:05;;;;;;;13.83;11.20;;;15.40;44.00;;;-145.48;99.97;99666.41;5073706;28;20174;-81
2024/05/06 07:58:32;;;;;;;11.07;9.90;;;15.40;43.30;;;-145.48;99.59;99689.31;5073458;28;20439;-80
2024/05/06 08:00:58;;;;;;;16.70;11.63;;;15.40;40.50;;;-145.48;99.55;99651.84;5073909;28;20482;-79
2024/05/06 08:03:24;;;;;;;11.70;10.20;;;15.50;39.90;;;-145.48;99.42;99699.72;5073199;28;20567;-78
2024/05/06 08:05:50;;;;;;;16.13;12.83;;;15.50;39.10;;;-145.48;99.24;99656.00;5067473;28;20467;-78
2024/05/06 08:08:19;;;;;;;17.70;14.07;;;15.50;35.80;;;-145.48;99.23;99647.69;5062634;28;20462;-80
2024/05/06 08:10:44;;;;;;;12.47;11.20;;;15.60;36.20;;;-145.48;99.32;99639.38;5079824;28;20436;-81
2024/05/06 08:13:11;;;;;;;12.67;10.20;;;15.60;36.20;;;-145.48;99.14;99664.34;5062377;28;20542;-78
2024/05/06 08:15:38;;;;;;;14.33;12.80;;;15.70;36.20;;;-145.48;98.66;99649.78;5060156;28;20213;-79
2024/05/06 08:18:04;;;;;;;12.23;10.70;;;15.70;29.10;;;-145.48;98.75;99633.13;5067190;28;20436;-78
2024/05/06 08:20:30;;;;;;;13.20;11.37;;;15.80;31.00;;;-145.48;98.11;99624.78;5066311;28;20487;-79
2024/05/06 08:22:55;;;;;;;12.10;10.67;;;15.80;24.90;;;-145.48;98.21;99612.31;5071529;28;20475;-78
2024/05/06 08:25:21;;;;;;;15.67;12.63;;;15.90;25.30;;;-145.48;98.04;99614.38;5072206;28;20535;-78
2024/05/06 08:27:47;;;;;;;14.27;11.30;;;15.90;24.10;;;-145.48;98.16;99616.47;5073885;28;20774;-78
2024/05/06 08:30:13;;;;;;;13.30;11.40;;;16.00;25.30;;;-145.48;98.25;99612.31;5075993;28;20218;-77
2024/05/06 08:32:39;;;;;;;15.20;11.93;;;16.00;26.20;;;-145.48;98.25;99543.63;5076294;28;20264;-78
2024/05/06 08:35:05;;;;;;;16.03;12.57;;;16.10;26.20;;;-145.48;97.56;99554.03;5075906;28;21038;-77
2024/05/06 08:37:31;;;;;;;17.83;13.80;;;16.10;18.90;;;-145.48;97.61;99581.09;5076118;28;20213;-77
2024/05/06 08:39:57;;;;;;;22.10;18.00;;;16.20;20.00;;;-145.48;97.54;99566.53;5076078;28;20467;-78
2024/05/06 08:42:23;;;;;;;14.90;13.27;;;16.20;18.40;;;-145.48;97.10;99572.78;5075954;28;20650;-79
2024/05/06 08:44:54;;;;;;;14.17;12.67;;;16.30;14.50;;;-145.48;97.53;99587.34;5075788;28;20587;-79
2024/05/06 08:47:22;;;;;;;18.30;13.57;;;16.30;18.20;;;-145.48;97.35;99558.19;5076125;28;20964;-78
2024/05/06 08:49:51;;;;;;;21.70;18.03;;;16.30;17.40;;;-145.48;97.10;99558.19;5076363;28;20474;-77
2024/05/06 08:52:17;;;;;;;15.00;12.57;;;16.40;14.90;;;-145.48;97.21;99587.34;5092855;28;20424;-79
2024/05/06 08:54:43;;;;;;;17.27;12.40;;;16.40;15.90;;;-145.48;96.93;99595.66;5076229;28;20523;-77
2024/05/06 08:57:11;;;;;;;12.63;11.33;;;16.40;11.50;;;-145.48;96.87;99564.44;5075447;28;20525;-78
2024/05/06 08:59:39;;;;;;;13.23;11.57;;;16.50;10.80;;;-145.48;96.85;99558.19;5075517;28;20661;-79
2024/05/06 09:02:06;;;;;;;16.00;13.53;;;16.50;11.50;;;-145.48;96.90;99562.38;5075678;28;20460;-78
2024/05/06 09:04:32;;;;;;;17.90;11.90;;;16.50;14.40;;;-145.48;97.01;99487.44;5075572;28;20515;-78
2024/05/06 09:06:59;;;;;;;20.43;16.60;;;16.60;14.10;;;-145.48;96.66;99524.91;5076214;28;20428;-79
2024/05/06 09:09:25;;;;;;;17.20;15.20;;;16.70;7.80;;;-145.48;96.10;99533.22;5073059;28;20533;-78
2024/05/06 09:11:51;;;;;;;21.10;15.70;;;16.70;3.70;;;-145.48;96.33;99518.66;5056682;28;20917;-78
2024/05/06 09:14:18;;;;;;;15.87;12.00;;;16.70;6.10;;;-145.48;95.94;99518.66;5061181;28;20178;-79
2024/05/06 09:16:57;;;;;;;13.97;11.43;;;16.80;2.20;;;-145.48;95.76;99541.53;5072553;28;20202;-79
2024/05/06 09:19:24;;;;;;;15.13;12.83;;;16.80;1.00;;;-145.48;95.90;99504.09;5056747;28;20863;-78
2024/05/06 09:21:50;;;;;;;14.43;12.60;;;16.90;1.80;;;-145.48;95.63;99487.44;5055479;28;20469;-78
2024/05/06 09:24:16;;;;;;;12.87;9.90;;;17.00;1.00;;;-145.48;94.91;99487.44;5072049;28;20872;-78
2024/05/06 09:26:42;;;;;;;12.10;9.53;;;17.10;1.00;;;-145.48;95.36;99514.50;5055185;28;20292;-77
2024/05/06 09:29:11;;;;;;;14.90;10.10;;;17.10;1.00;;;-145.48;94.50;99485.34;5088318;28;20508;-77
2024/05/06 09:31:38;;;;;;;11.43;10.17;;;17.20;1.00;;;-145.48;94.29;99452.06;5055428;28;20181;-78
2024/05/06 09:34:04;;;;;;;10.67;9.30;;;17.30;1.00;;;-145.48;94.14;99472.88;5055973;28;20865;-79
2024/05/06 09:36:33;;;;;;;12.00;10.73;;;17.40;1.00;;;-145.48;93.98;99437.50;5055993;28;20471;-78
2024/05/06 09:39:02;;;;;;;11.50;10.30;;;16.90;1.00;;;-145.48;94.12;99410.44;5064803;28;20905;-79
2024/05/06 09:41:51;;;;;;;9.97;8.47;;;17.50;1.00;;;-145.48;94.14;99464.53;5076357;28;20864;-79
2024/05/06 09:44:22;;;;;;;12.33;9.10;;;17.60;1.00;;;-145.48;94.01;99454.13;5074742;28;20471;-77
2024/05/06 09:46:50;;;;;;;11.80;9.20;;;17.60;1.00;;;-145.48;92.52;99402.13;5074748;28;20485;-78
2024/05/06 09:49:17;;;;;;;10.90;9.20;;;17.70;1.00;;;-145.48;92.86;99391.72;5081368;28;20780;-81
2024/05/06 09:51:45;;;;;;;10.63;9.30;;;17.80;1.00;;;-145.48;92.54;99400.03;5095364;28;20483;-78